Time;durP1;ratioP1;P1;durP2;ratioP2;P2;SDS_P1;SDS_P2;PMS_P1;PMS_P2;Temp;Humidity;BMP_temperature;BMP_pressure;BME280_temperature;BME280_humidity;BME280_pressure;Samples;Min_cycle;Max_cycle;Signal;HPM_P1;HPM_P2
2023/09/27 00:00:34;;;;;;;7.30;6.60;;;;;;;11.16;100.00;96509.59;6309809;22;19995;-63
2023/09/27 00:03:00;;;;;;;9.25;6.80;;;;;;;11.15;100.00;96515.81;6310438;22;19999;-63
2023/09/27 00:05:26;;;;;;;7.85;6.70;;;;;;;11.13;100.00;96509.84;6310952;22;20502;-64
2023/09/27 00:07:52;;;;;;;8.93;6.78;;;;;;;11.12;100.00;96509.97;6311092;22;20495;-63
2023/09/27 00:10:17;;;;;;;9.95;6.50;;;;;;;11.11;100.00;96509.13;6310573;22;20332;-64
2023/09/27 00:12:45;;;;;;;6.50;5.97;;;;;;;11.12;100.00;96513.44;6310326;22;20015;-63
2023/09/27 00:15:12;;;;;;;7.03;6.30;;;;;;;11.12;100.00;96508.16;6310898;22;19999;-63
2023/09/27 00:17:38;;;;;;;8.48;6.53;;;;;;;11.10;100.00;96501.34;6310630;22;20014;-63
2023/09/27 00:20:05;;;;;;;7.40;6.70;;;;;;;11.08;100.00;96498.84;6310360;22;20089;-63
2023/09/27 00:22:32;;;;;;;7.53;6.47;;;;;;;11.10;100.00;96496.91;6310022;22;20010;-63
2023/09/27 00:24:57;;;;;;;9.38;7.75;;;;;;;11.06;100.00;96500.75;6310506;22;20010;-63
2023/09/27 00:27:24;;;;;;;8.27;6.97;;;;;;;10.99;100.00;96494.31;6309888;22;20424;-64
2023/09/27 00:29:50;;;;;;;8.10;7.45;;;;;;;10.94;100.00;96497.31;6310482;22;20072;-63
2023/09/27 00:32:15;;;;;;;7.95;7.10;;;;;;;10.92;100.00;96498.41;6282926;22;20007;-64
2023/09/27 00:34:40;;;;;;;9.80;6.60;;;;;;;10.91;100.00;96508.13;6309263;22;19996;-64
2023/09/27 00:37:06;;;;;;;6.97;6.47;;;;;;;10.89;100.00;96495.06;6310351;22;20011;-64
2023/09/27 00:39:35;;;;;;;7.90;7.10;;;;;;;10.87;100.00;96491.72;6310138;22;20007;-63
2023/09/27 00:42:00;;;;;;;7.85;7.03;;;;;;;10.89;100.00;96488.97;6310527;22;19999;-63
2023/09/27 00:44:26;;;;;;;7.15;6.50;;;;;;;10.86;100.00;96484.78;6310395;22;20023;-63
2023/09/27 00:46:52;;;;;;;8.00;7.20;;;;;;;10.82;100.00;96487.78;6310324;22;19995;-63
2023/09/27 00:49:18;;;;;;;7.65;6.55;;;;;;;10.75;100.00;96485.63;6310598;22;19999;-63
2023/09/27 00:51:44;;;;;;;6.75;6.15;;;;;;;10.75;100.00;96490.09;6310793;22;20021;-63
2023/09/27 00:54:10;;;;;;;7.47;6.20;;;;;;;10.71;100.00;96486.00;6282899;22;20007;-63
2023/09/27 00:56:36;;;;;;;10.25;7.13;;;;;;;10.72;100.00;96487.66;6310451;22;20349;-63
2023/09/27 00:59:02;;;;;;;7.95;6.45;;;;;;;10.70;100.00;96495.72;6310055;22;19996;-63
2023/09/27 01:01:28;;;;;;;7.72;7.03;;;;;;;10.69;100.00;96503.72;6310031;22;20056;-63
2023/09/27 01:03:54;;;;;;;7.47;6.78;;;;;;;10.66;100.00;96498.72;6310181;22;20033;-63
2023/09/27 01:06:23;;;;;;;8.57;6.97;;;;;;;10.60;100.00;96492.97;6310005;22;19995;-63
2023/09/27 01:08:48;;;;;;;7.28;6.55;;;;;;;10.60;100.00;96487.72;6310559;22;19995;-63
2023/09/27 01:11:14;;;;;;;6.70;6.10;;;;;;;10.59;100.00;96491.31;6310601;22;20006;-63
2023/09/27 01:13:39;;;;;;;10.13;6.45;;;;;;;10.65;100.00;96492.63;6276891;22;20024;-63
2023/09/27 01:16:05;;;;;;;7.60;6.90;;;;;;;10.63;100.00;96488.41;6278146;22;20069;-63
2023/09/27 01:18:30;;;;;;;7.18;6.45;;;;;;;10.53;100.00;96491.81;6278925;22;20034;-63
2023/09/27 01:20:56;;;;;;;7.00;6.40;;;;;;;10.54;100.00;96501.38;6279003;22;20042;-64
2023/09/27 01:23:21;;;;;;;6.95;6.35;;;;;;;10.56;100.00;96498.59;6279221;22;20000;-63
2023/09/27 01:25:56;;;;;;;7.38;6.72;;;;;;;10.52;100.00;96497.19;6278917;22;19998;-63
2023/09/27 01:28:21;;;;;;;8.25;7.03;;;;;;;10.53;100.00;96494.44;6278862;22;20038;-63
2023/09/27 01:30:47;;;;;;;7.03;6.30;;;;;;;10.48;100.00;96495.75;6279082;22;20000;-63
2023/09/27 01:33:13;;;;;;;6.93;6.22;;;;;;;10.45;100.00;96502.94;6278899;22;20031;-63
2023/09/27 01:35:41;;;;;;;8.23;7.40;;;;;;;10.46;100.00;96503.75;6278814;22;19999;-63
2023/09/27 01:38:08;;;;;;;9.95;7.50;;;;;;;10.46;100.00;96506.41;6279019;22;20010;-63
2023/09/27 01:40:45;;;;;;;9.27;7.30;;;;;;;10.48;100.00;96503.66;6278940;22;19999;-63
2023/09/27 01:43:11;;;;;;;7.50;6.72;;;;;;;10.46;100.00;96501.97;6278598;22;19999;-63
2023/09/27 01:45:37;;;;;;;8.35;7.55;;;;;;;10.48;100.00;96493.94;6278964;22;20002;-63
2023/09/27 01:48:04;;;;;;;8.43;7.53;;;;;;;10.47;100.00;96489.63;6279197;22;19999;-63
2023/09/27 01:50:33;;;;;;;8.45;6.45;;;;;;;10.44;100.00;96495.16;6279039;22;20019;-63
2023/09/27 01:52:59;;;;;;;8.65;7.25;;;;;;;10.38;100.00;96498.25;6278932;22;19995;-63
2023/09/27 01:55:25;;;;;;;9.18;7.10;;;;;;;10.36;100.00;96494.91;6278384;22;20003;-63
2023/09/27 01:57:51;;;;;;;7.05;6.45;;;;;;;10.34;100.00;96491.56;6278768;22;20012;-63
2023/09/27 02:00:18;;;;;;;7.00;6.40;;;;;;;10.33;100.00;96501.22;6278500;22;19996;-63
2023/09/27 02:02:45;;;;;;;7.93;7.13;;;;;;;10.29;100.00;96487.50;6277525;22;19995;-63
2023/09/27 02:05:11;;;;;;;7.90;7.20;;;;;;;10.31;100.00;96488.22;6278265;22;20004;-63
2023/09/27 02:07:41;;;;;;;7.68;6.88;;;;;;;10.31;100.00;96476.81;6277657;22;19995;-63
2023/09/27 02:10:10;;;;;;;6.97;6.45;;;;;;;10.28;100.00;96475.28;6278122;22;20008;-63
2023/09/27 02:12:37;;;;;;;7.45;6.75;;;;;;;10.27;100.00;96478.03;6278645;22;20007;-63
2023/09/27 02:15:04;;;;;;;7.95;6.63;;;;;;;10.21;100.00;96475.88;6310104;22;20006;-63
2023/09/27 02:17:29;;;;;;;7.88;6.70;;;;;;;10.18;100.00;96480.44;6309616;22;20064;-63
2023/09/27 02:19:55;;;;;;;7.25;6.57;;;;;;;10.23;100.00;96482.69;6309836;22;20043;-63
2023/09/27 02:22:20;;;;;;;7.53;6.53;;;;;;;10.22;100.00;96472.31;6309584;22;19996;-63
2023/09/27 02:24:47;;;;;;;7.40;6.80;;;;;;;10.18;100.00;96471.69;6309336;22;19999;-63
2023/09/27 02:27:14;;;;;;;7.53;6.80;;;;;;;10.11;100.00;96467.88;6309536;22;20002;-63
2023/09/27 02:29:42;;;;;;;9.18;8.05;;;;;;;10.07;100.00;96466.44;6309166;22;20392;-63
2023/09/27 02:32:08;;;;;;;8.38;7.68;;;;;;;10.11;100.00;96457.34;6309428;22;20053;-63
2023/09/27 02:34:37;;;;;;;10.00;7.03;;;;;;;10.12;100.00;96445.88;6309627;22;19999;-63
2023/09/27 02:37:03;;;;;;;8.10;7.28;;;;;;;10.11;100.00;96442.38;6308449;22;20008;-63
2023/09/27 02:39:29;;;;;;;8.07;7.38;;;;;;;10.12;100.00;96451.13;6309152;22;19999;-64
2023/09/27 02:41:57;;;;;;;8.23;7.45;;;;;;;10.10;100.00;96451.25;6309627;22;20111;-63
2023/09/27 02:44:23;;;;;;;9.15;8.20;;;;;;;10.08;100.00;96452.34;6309268;22;20001;-63
2023/09/27 02:46:51;;;;;;;7.88;7.18;;;;;;;10.04;100.00;96449.91;6309371;22;20015;-63
2023/09/27 02:49:18;;;;;;;7.80;7.20;;;;;;;10.02;100.00;96448.38;6308075;22;20449;-63
2023/09/27 02:51:43;;;;;;;8.00;7.30;;;;;;;10.01;100.00;96446.72;6309389;22;20023;-63
2023/09/27 02:54:10;;;;;;;10.15;7.57;;;;;;;10.01;100.00;96447.53;6309261;22;20006;-63
2023/09/27 02:56:36;;;;;;;8.00;7.00;;;;;;;9.98;100.00;96445.16;6309642;22;20013;-63
2023/09/27 02:59:02;;;;;;;8.70;7.20;;;;;;;9.97;100.00;96450.53;6309590;22;20074;-63
2023/09/27 03:01:28;;;;;;;8.23;7.45;;;;;;;9.97;100.00;96440.84;6309364;22;20514;-63
2023/09/27 03:03:55;;;;;;;7.93;7.13;;;;;;;9.96;100.00;96441.81;6308854;22;20372;-63
2023/09/27 03:06:20;;;;;;;9.32;6.93;;;;;;;9.97;100.00;96443.47;6309311;22;19995;-63
2023/09/27 03:08:47;;;;;;;7.80;6.75;;;;;;;9.90;100.00;96447.53;6309290;22;20129;-63
2023/09/27 03:11:13;;;;;;;8.80;7.28;;;;;;;9.87;100.00;96440.72;6309375;22;20006;-63
2023/09/27 03:13:40;;;;;;;7.13;6.53;;;;;;;9.87;100.00;96445.16;6308398;22;20447;-63
2023/09/27 03:16:06;;;;;;;9.32;7.00;;;;;;;9.82;100.00;96442.88;6308870;22;20010;-63
2023/09/27 03:18:32;;;;;;;11.57;7.03;;;;;;;9.81;100.00;96438.56;6310713;22;20004;-63
2023/09/27 03:20:59;;;;;;;7.88;7.18;;;;;;;9.82;100.00;96436.75;6311662;22;20010;-63
2023/09/27 03:23:27;;;;;;;7.75;7.05;;;;;;;9.79;100.00;96429.97;6311668;22;20002;-63
2023/09/27 03:25:55;;;;;;;8.48;7.55;;;;;;;9.79;100.00;96432.59;6283555;22;19998;-63
2023/09/27 03:28:21;;;;;;;8.25;6.80;;;;;;;9.72;100.00;96432.22;6311274;22;20014;-63
2023/09/27 03:30:47;;;;;;;7.78;6.75;;;;;;;9.69;100.00;96427.22;6311293;22;20078;-63
2023/09/27 03:33:13;;;;;;;7.82;7.10;;;;;;;9.77;100.00;96428.41;6311282;22;19999;-63
2023/09/27 03:35:38;;;;;;;7.10;6.45;;;;;;;9.75;100.00;96426.72;6311224;22;20060;-63
2023/09/27 03:38:05;;;;;;;7.40;6.70;;;;;;;9.70;100.00;96422.78;6311346;22;19995;-63
2023/09/27 03:40:31;;;;;;;9.88;7.00;;;;;;;9.70;100.00;96421.00;6310960;22;20002;-63
2023/09/27 03:42:56;;;;;;;7.93;7.18;;;;;;;9.71;100.00;96420.03;6311367;22;20027;-63
2023/09/27 03:45:22;;;;;;;8.20;7.57;;;;;;;9.70;100.00;96413.09;6311268;22;20071;-63
2023/09/27 03:47:48;;;;;;;11.50;8.68;;;;;;;9.64;100.00;96405.72;6310817;22;20428;-63
2023/09/27 03:50:14;;;;;;;9.07;7.85;;;;;;;9.60;100.00;96405.09;6310565;22;20029;-64
2023/09/27 03:52:40;;;;;;;11.20;7.75;;;;;;;9.56;100.00;96398.41;6310816;22;20002;-63
2023/09/27 03:55:10;;;;;;;8.48;7.47;;;;;;;9.55;100.00;96398.50;6311334;22;20007;-63
2023/09/27 03:57:35;;;;;;;8.95;7.43;;;;;;;9.52;100.00;96396.13;6310816;22;20052;-63
2023/09/27 04:00:01;;;;;;;9.32;6.95;;;;;;;9.53;100.00;96393.38;6310731;22;20030;-63
2023/09/27 04:02:29;;;;;;;8.15;7.15;;;;;;;9.48;100.00;96390.25;6310828;22;20102;-63
2023/09/27 04:04:54;;;;;;;8.98;7.50;;;;;;;9.52;100.00;96398.75;6311140;22;20002;-63
2023/09/27 04:07:20;;;;;;;7.90;7.10;;;;;;;9.55;100.00;96391.47;6310771;22;20331;-63
2023/09/27 04:09:46;;;;;;;7.90;6.90;;;;;;;9.57;100.00;96391.34;6310761;22;20033;-63
2023/09/27 04:12:11;;;;;;;10.48;7.90;;;;;;;9.58;100.00;96398.25;6310537;22;20054;-63
2023/09/27 04:14:38;;;;;;;8.25;7.43;;;;;;;9.55;100.00;96393.25;6310394;22;20016;-63
2023/09/27 04:17:03;;;;;;;8.05;7.35;;;;;;;9.51;100.00;96395.31;6310195;22;20014;-63
2023/09/27 04:19:30;;;;;;;8.93;7.32;;;;;;;9.46;100.00;96398.28;6310651;22;19999;-63
2023/09/27 04:21:55;;;;;;;8.05;7.13;;;;;;;9.46;100.00;96394.78;6310752;22;20003;-63
2023/09/27 04:24:21;;;;;;;9.70;7.25;;;;;;;9.40;100.00;96395.28;6311088;22;19999;-63
2023/09/27 04:26:46;;;;;;;8.80;7.70;;;;;;;9.40;100.00;96393.50;6311136;22;20075;-63
2023/09/27 04:29:12;;;;;;;8.90;7.38;;;;;;;9.33;100.00;96400.16;6310715;22;20572;-63
2023/09/27 04:31:37;;;;;;;7.75;7.05;;;;;;;9.31;100.00;96395.03;6310627;22;20007;-63
2023/09/27 04:34:03;;;;;;;8.00;7.10;;;;;;;9.31;100.00;96396.81;6310110;22;20707;-63
2023/09/27 04:36:28;;;;;;;12.10;7.65;;;;;;;9.31;100.00;96396.81;6283120;22;20007;-63
2023/09/27 04:38:53;;;;;;;9.43;7.90;;;;;;;9.30;100.00;96393.34;6310568;22;20007;-63
2023/09/27 04:41:20;;;;;;;8.82;7.75;;;;;;;9.28;100.00;96397.03;6310840;22;20074;-63
2023/09/27 04:43:46;;;;;;;8.23;7.43;;;;;;;9.25;100.00;96397.28;6309895;22;19995;-63
2023/09/27 04:46:16;;;;;;;8.50;7.22;;;;;;;9.24;100.00;96399.06;6310391;22;20582;-65
2023/09/27 04:48:42;;;;;;;9.65;7.55;;;;;;;9.24;100.00;96406.94;6310628;22;20014;-63
2023/09/27 04:51:07;;;;;;;9.00;8.10;;;;;;;9.24;100.00;96398.22;6283508;22;19995;-62
2023/09/27 04:53:36;;;;;;;12.43;7.30;;;;;;;9.24;100.00;96406.94;6310690;22;20003;-62
2023/09/27 04:56:06;;;;;;;10.70;7.15;;;;;;;9.23;100.00;96400.00;6310364;22;20011;-63
2023/09/27 04:58:31;;;;;;;9.32;8.07;;;;;;;9.20;100.00;96395.00;6310312;22;19995;-62
2023/09/27 05:00:57;;;;;;;9.30;7.20;;;;;;;9.20;100.00;96396.81;6310288;22;19999;-63
2023/09/27 05:03:22;;;;;;;12.77;7.45;;;;;;;9.22;100.00;96389.63;6283021;22;20088;-62
2023/09/27 05:05:48;;;;;;;9.00;8.05;;;;;;;9.21;100.00;96386.16;6310170;22;19995;-63
2023/09/27 05:08:13;;;;;;;10.82;8.13;;;;;;;9.17;100.00;96393.44;6309865;22;19995;-62
2023/09/27 05:10:38;;;;;;;10.00;8.68;;;;;;;9.16;100.00;96385.69;6310477;22;19995;-62
2023/09/27 05:13:04;;;;;;;8.60;7.70;;;;;;;9.17;100.00;96380.31;6309959;22;20056;-63
2023/09/27 05:15:32;;;;;;;11.07;7.93;;;;;;;9.15;100.00;96371.69;6310220;22;20091;-62
2023/09/27 05:17:57;;;;;;;8.85;7.95;;;;;;;9.13;100.00;96376.22;6310632;22;20052;-63
2023/09/27 05:20:22;;;;;;;9.98;7.90;;;;;;;9.06;100.00;96377.66;6309814;22;19999;-63
2023/09/27 05:22:48;;;;;;;9.60;7.95;;;;;;;9.02;100.00;96370.97;6309903;22;20006;-63
2023/09/27 05:25:14;;;;;;;10.88;7.35;;;;;;;9.03;100.00;96373.44;6309681;22;20166;-63
2023/09/27 05:27:40;;;;;;;9.25;8.38;;;;;;;9.00;100.00;96365.81;6308703;22;20135;-62
2023/09/27 05:30:09;;;;;;;9.45;8.15;;;;;;;9.03;100.00;96370.00;6309510;22;20003;-63
2023/09/27 05:32:34;;;;;;;8.65;7.78;;;;;;;9.06;100.00;96367.16;6310072;22;20064;-63
2023/09/27 05:35:01;;;;;;;8.63;7.72;;;;;;;9.13;100.00;96357.00;6310160;22;20073;-63
2023/09/27 05:37:28;;;;;;;8.35;7.45;;;;;;;9.16;100.00;96354.97;6309818;22;20090;-63
2023/09/27 05:39:54;;;;;;;8.98;7.05;;;;;;;9.19;100.00;96358.34;6309179;22;20332;-63
2023/09/27 05:42:20;;;;;;;10.52;8.07;;;;;;;9.20;100.00;96354.75;6309466;22;20003;-63
2023/09/27 05:44:45;;;;;;;9.10;8.30;;;;;;;9.15;100.00;96358.56;6309486;22;19987;-63
2023/09/27 05:47:11;;;;;;;11.02;8.75;;;;;;;9.16;100.00;96359.41;6309594;22;20518;-63
2023/09/27 05:49:36;;;;;;;9.23;8.32;;;;;;;9.17;100.00;96363.69;6309344;22;20010;-63
2023/09/27 05:52:02;;;;;;;10.70;8.27;;;;;;;9.21;100.00;96362.50;6309050;22;20003;-63
2023/09/27 05:54:29;;;;;;;12.15;7.80;;;;;;;9.23;100.00;96357.97;6308291;22;19999;-62
2023/09/27 05:56:55;;;;;;;11.45;8.43;;;;;;;9.22;100.00;96363.38;6308100;22;20018;-63
2023/09/27 05:59:24;;;;;;;10.82;8.38;;;;;;;9.21;100.00;96359.06;6309910;22;20052;-63
2023/09/27 06:01:51;;;;;;;13.68;8.80;;;;;;;9.21;100.00;96357.25;6308477;22;20332;-63
2023/09/27 06:04:17;;;;;;;9.35;8.20;;;;;;;9.25;100.00;96352.63;6308868;22;20002;-62
2023/09/27 06:06:43;;;;;;;9.20;8.15;;;;;;;9.21;100.00;96354.63;6308902;22;20718;-63
2023/09/27 06:09:11;;;;;;;9.48;8.27;;;;;;;9.23;100.00;96372.91;6308166;22;20006;-63
2023/09/27 06:11:37;;;;;;;11.63;9.05;;;;;;;9.23;100.00;96359.78;6307556;22;20022;-63
2023/09/27 06:14:10;;;;;;;11.35;8.52;;;;;;;9.26;100.00;96370.06;6307224;22;20019;-63
2023/09/27 06:16:36;;;;;;;10.27;8.38;;;;;;;9.25;100.00;96373.63;6307793;22;19999;-63
2023/09/27 06:19:04;;;;;;;14.15;8.65;;;;;;;9.28;100.00;96370.75;6308156;22;20082;-63
2023/09/27 06:21:29;;;;;;;11.05;8.68;;;;;;;9.29;100.00;96368.03;6308554;22;19999;-63
2023/09/27 06:23:55;;;;;;;10.88;8.70;;;;;;;9.28;100.00;96366.38;6280636;22;20056;-63
2023/09/27 06:26:21;;;;;;;10.80;8.60;;;;;;;9.34;100.00;96372.91;6308914;22;20068;-62
2023/09/27 06:28:46;;;;;;;10.60;9.02;;;;;;;9.36;100.00;96372.81;6308625;22;19999;-63
2023/09/27 06:31:13;;;;;;;15.77;9.25;;;;;;;9.35;100.00;96371.13;6281627;22;20757;-62
2023/09/27 06:33:39;;;;;;;16.98;9.30;;;;;;;9.40;100.00;96377.72;6309149;22;20717;-64
2023/09/27 06:36:11;;;;;;;10.40;8.30;;;;;;;9.45;100.00;96374.72;6309224;22;20007;-64
2023/09/27 06:38:37;;;;;;;10.05;9.05;;;;;;;9.41;100.00;96365.41;6307105;22;20504;-63
2023/09/27 06:41:03;;;;;;;10.85;9.10;;;;;;;9.43;100.00;96363.50;6307665;22;20006;-63
2023/09/27 06:43:31;;;;;;;13.13;7.97;;;;;;;9.46;100.00;96363.25;6308834;22;20102;-63
2023/09/27 06:45:57;;;;;;;14.00;9.07;;;;;;;9.51;100.00;96358.50;6307583;22;20003;-64
2023/09/27 06:48:26;;;;;;;10.77;9.23;;;;;;;9.56;100.00;96350.22;6307671;22;19999;-63
2023/09/27 06:50:51;;;;;;;9.50;8.57;;;;;;;9.56;100.00;96337.94;6308842;22;19999;-63
2023/09/27 06:53:17;;;;;;;11.90;9.65;;;;;;;9.56;100.00;96343.19;6308690;22;20003;-63
2023/09/27 06:55:44;;;;;;;11.93;8.75;;;;;;;9.58;100.00;96325.50;6308952;22;20392;-63
2023/09/27 06:58:11;;;;;;;11.40;8.65;;;;;;;9.60;100.00;96328.84;6307158;22;20104;-63
2023/09/27 07:00:40;;;;;;;10.70;9.02;;;;;;;9.65;100.00;96322.41;6308194;22;19995;-64
2023/09/27 07:03:06;;;;;;;14.60;9.43;;;;;;;9.69;100.00;96326.44;6309353;22;19995;-63
2023/09/27 07:05:33;;;;;;;9.32;8.60;;;;;;;9.71;100.00;96314.88;6281821;22;20002;-63
2023/09/27 07:07:59;;;;;;;10.52;8.30;;;;;;;9.77;100.00;96320.59;6308561;22;20454;-63
2023/09/27 07:10:25;;;;;;;10.98;9.48;;;;;;;9.72;100.00;96313.06;6309000;22;20003;-63
2023/09/27 07:12:50;;;;;;;12.32;9.50;;;;;;;9.77;100.00;96307.44;6308562;22;20015;-63
2023/09/27 07:15:16;;;;;;;17.45;10.15;;;;;;;9.80;100.00;96309.81;6309029;22;20007;-64
2023/09/27 07:17:43;;;;;;;12.27;9.10;;;;;;;9.89;100.00;96314.38;6281841;22;20003;-64
2023/09/27 07:20:23;;;;;;;9.88;8.73;;;;;;;10.14;100.00;96315.84;6308668;22;20558;-63
2023/09/27 07:22:50;;;;;;;18.17;10.70;;;;;;;10.58;100.00;96318.50;6308885;22;20048;-63
2023/09/27 07:25:18;;;;;;;14.18;9.18;;;;;;;10.92;100.00;96316.63;6309078;22;19999;-63
2023/09/27 07:27:46;;;;;;;13.07;9.40;;;;;;;11.13;100.00;96314.81;6282259;22;19999;-63
2023/09/27 07:30:11;;;;;;;9.88;8.55;;;;;;;11.33;100.00;96317.56;6309671;22;20000;-63
2023/09/27 07:32:39;;;;;;;11.60;7.63;;;;;;;11.40;100.00;96328.41;6309568;22;20082;-63
2023/09/27 07:35:10;;;;;;;9.73;7.65;;;;;;;11.44;100.00;96328.03;6309295;22;19995;-63
2023/09/27 07:37:39;;;;;;;15.15;8.52;;;;;;;11.44;100.00;96329.81;6309017;22;20000;-63
2023/09/27 07:40:09;;;;;;;10.88;7.35;;;;;;;11.61;100.00;96338.94;6309408;22;20477;-63
2023/09/27 07:42:38;;;;;;;11.35;7.55;;;;;;;11.54;100.00;96345.69;6308853;22;20002;-63
2023/09/27 07:45:05;;;;;;;7.18;6.53;;;;;;;11.62;100.00;96361.72;6308911;22;20437;-63
2023/09/27 07:47:31;;;;;;;11.63;7.20;;;;;;;11.77;100.00;96371.88;6309374;22;19995;-63
2023/09/27 07:49:56;;;;;;;7.22;6.40;;;;;;;11.77;100.00;96378.00;6309537;22;19999;-63
2023/09/27 07:52:21;;;;;;;6.82;6.03;;;;;;;11.86;100.00;96386.94;6309293;22;20010;-63
2023/09/27 07:54:47;;;;;;;8.85;6.18;;;;;;;11.96;100.00;96393.06;6309244;22;20051;-64
2023/09/27 07:57:14;;;;;;;6.82;6.07;;;;;;;12.06;100.00;96400.22;6281112;22;20009;-63
2023/09/27 07:59:39;;;;;;;6.95;5.85;;;;;;;12.17;100.00;96418.59;6308977;22;20002;-64
2023/09/27 08:02:05;;;;;;;6.50;5.90;;;;;;;12.26;100.00;96425.69;6308841;22;19999;-63
2023/09/27 08:04:30;;;;;;;7.25;6.00;;;;;;;12.39;100.00;96438.69;6310467;22;20086;-63
2023/09/27 08:06:56;;;;;;;6.13;5.43;;;;;;;12.51;100.00;96449.13;6310711;22;19995;-63
2023/09/27 08:09:22;;;;;;;7.55;5.63;;;;;;;12.57;100.00;96469.69;6311096;22;20385;-64
2023/09/27 08:11:48;;;;;;;6.55;5.78;;;;;;;12.65;100.00;96475.16;6310246;22;20350;-63
2023/09/27 08:14:16;;;;;;;5.68;5.07;;;;;;;12.75;100.00;96483.94;6310862;22;20027;-63
2023/09/27 08:16:42;;;;;;;5.88;5.35;;;;;;;12.86;100.00;96501.47;6283456;22;20007;-64
2023/09/27 08:19:08;;;;;;;8.18;6.05;;;;;;;12.98;100.00;96498.72;6310695;22;20007;-64
2023/09/27 08:21:34;;;;;;;8.32;5.95;;;;;;;13.07;100.00;96503.16;6310702;22;20339;-64
2023/09/27 08:23:59;;;;;;;6.13;5.63;;;;;;;13.15;100.00;96511.25;6310845;22;20278;-63
2023/09/27 08:26:26;;;;;;;6.85;6.25;;;;;;;13.27;100.00;96513.75;6310297;22;20003;-64
2023/09/27 08:28:51;;;;;;;6.60;5.97;;;;;;;13.45;100.00;96514.78;6310956;22;19999;-63
2023/09/27 08:31:17;;;;;;;6.88;6.18;;;;;;;13.57;100.00;96512.81;6311056;22;20000;-63
2023/09/27 08:33:43;;;;;;;7.18;6.35;;;;;;;13.66;100.00;96516.44;6310937;22;20703;-63
2023/09/27 08:36:09;;;;;;;7.07;6.38;;;;;;;13.86;100.00;96513.75;6283078;22;20003;-63
2023/09/27 08:38:34;;;;;;;7.25;6.50;;;;;;;14.02;100.00;96518.47;6310570;22;20454;-64
2023/09/27 08:41:00;;;;;;;9.52;6.43;;;;;;;14.12;100.00;96515.78;6310396;22;20003;-63
2023/09/27 08:43:28;;;;;;;9.68;6.90;;;;;;;14.20;100.00;96512.41;6310596;22;20007;-63
2023/09/27 08:45:54;;;;;;;7.00;6.35;;;;;;;14.29;100.00;96504.44;6310366;22;20002;-63
2023/09/27 08:48:22;;;;;;;10.02;6.63;;;;;;;14.38;100.00;96512.47;6311048;22;20022;-63
2023/09/27 08:50:49;;;;;;;8.30;6.97;;;;;;;14.40;100.00;96518.47;6310797;22;19999;-63
2023/09/27 08:53:15;;;;;;;6.72;6.18;;;;;;;14.44;100.00;96515.38;6311020;22;19995;-64
2023/09/27 08:55:47;;;;;;;7.50;6.70;;;;;;;14.53;100.00;96505.72;6310652;22;20061;-63
2023/09/27 08:58:14;;;;;;;7.78;6.10;;;;;;;14.57;100.00;96508.91;6310574;22;20010;-63
2023/09/27 09:00:41;;;;;;;7.95;6.30;;;;;;;14.68;100.00;96491.97;6310716;22;19999;-63
2023/09/27 09:03:07;;;;;;;8.55;6.97;;;;;;;14.76;100.00;96494.75;6310643;22;20029;-63
2023/09/27 09:05:33;;;;;;;7.88;6.97;;;;;;;14.80;100.00;96501.44;6310380;22;20337;-63
2023/09/27 09:08:00;;;;;;;12.23;6.63;;;;;;;14.84;100.00;96502.78;6310429;22;20010;-63
2023/09/27 09:10:25;;;;;;;6.97;6.32;;;;;;;14.98;100.00;96503.28;6310303;22;20419;-63
2023/09/27 09:12:54;;;;;;;9.48;6.22;;;;;;;15.09;100.00;96504.88;6309621;22;20007;-63
2023/09/27 09:15:40;;;;;;;8.30;6.05;;;;;;;15.23;100.00;96511.47;6310237;22;20011;-63
2023/09/27 09:18:14;;;;;;;8.52;6.78;;;;;;;15.27;100.00;96508.38;6309885;22;20456;-63
2023/09/27 09:20:54;;;;;;;7.27;6.20;;;;;;;15.38;100.00;96509.97;6309894;22;20011;-63
2023/09/27 09:23:32;;;;;;;7.30;5.70;;;;;;;15.45;100.00;96497.75;6310099;22;20278;-63
2023/09/27 09:25:58;;;;;;;7.97;6.30;;;;;;;15.53;100.00;96520.03;6310244;22;20005;-63
2023/09/27 09:28:27;;;;;;;7.35;6.43;;;;;;;15.69;100.00;96512.22;6309757;22;20317;-63
2023/09/27 09:30:54;;;;;;;7.13;6.38;;;;;;;15.78;100.00;96509.59;6310079;22;20081;-64
2023/09/27 09:33:20;;;;;;;7.80;6.22;;;;;;;15.94;100.00;96515.06;6310177;22;20068;-63
2023/09/27 09:35:46;;;;;;;5.85;5.35;;;;;;;16.00;100.00;96513.63;6309751;22;20003;-63
2023/09/27 09:38:12;;;;;;;6.43;5.68;;;;;;;16.18;100.00;96516.22;6310490;22;20090;-63
2023/09/27 09:40:54;;;;;;;6.40;5.80;;;;;;;16.30;100.00;96514.13;6310416;22;20011;-63
2023/09/27 09:43:37;;;;;;;7.10;6.20;;;;;;;16.36;100.00;96508.19;6310171;22;20002;-63
2023/09/27 09:46:06;;;;;;;6.45;5.50;;;;;;;16.43;100.00;96505.72;6310040;22;20549;-64
2023/09/27 09:48:33;;;;;;;6.78;5.95;;;;;;;16.51;100.00;96505.78;6310052;22;19995;-63
2023/09/27 09:51:06;;;;;;;8.20;5.68;;;;;;;16.49;100.00;96504.25;6309825;22;19999;-63
2023/09/27 09:53:53;;;;;;;8.15;6.32;;;;;;;16.54;100.00;96502.78;6282017;22;20026;-63
2023/09/27 09:56:20;;;;;;;6.45;5.85;;;;;;;16.64;100.00;96505.31;6310010;22;20082;-63
2023/09/27 09:58:59;;;;;;;6.75;6.05;;;;;;;16.80;100.00;96509.03;6309805;22;20006;-63
2023/09/27 10:01:28;;;;;;;6.88;5.82;;;;;;;16.92;100.00;96502.41;6310240;22;20596;-63
2023/09/27 10:03:55;;;;;;;6.57;5.97;;;;;;;17.00;100.00;96501.66;6309995;22;19999;-63
2023/09/27 10:06:22;;;;;;;6.20;5.53;;;;;;;17.05;100.00;96501.97;6309396;22;19995;-63
2023/09/27 10:08:49;;;;;;;7.72;6.13;;;;;;;17.06;100.00;96492.19;6309392;22;19995;-64
2023/09/27 10:11:16;;;;;;;6.68;6.03;;;;;;;17.11;100.00;96493.34;6309878;22;19995;-64
2023/09/27 10:13:43;;;;;;;8.00;5.50;;;;;;;17.17;100.00;96484.72;6309517;22;20072;-63
2023/09/27 10:16:09;;;;;;;6.93;5.95;;;;;;;17.14;100.00;96490.38;6309956;22;20045;-64
2023/09/27 10:18:39;;;;;;;8.32;6.03;;;;;;;17.20;100.00;96488.88;6310038;22;20006;-64
2023/09/27 10:21:07;;;;;;;6.22;5.63;;;;;;;17.28;100.00;96470.28;6309945;22;20006;-63
2023/09/27 10:23:58;;;;;;;7.55;5.68;;;;;;;17.33;100.00;96475.06;6309754;22;20023;-64
2023/09/27 10:26:26;;;;;;;9.27;5.85;;;;;;;17.45;100.00;96471.09;6291717;22;20329;-63
2023/09/27 10:29:01;;;;;;;6.30;5.72;;;;;;;17.63;100.00;96464.78;6309587;22;19995;-64
2023/09/27 10:31:27;;;;;;;6.47;5.97;;;;;;;17.66;100.00;96429.84;6309682;22;20066;-63
2023/09/27 10:33:53;;;;;;;6.80;6.10;;;;;;;17.78;100.00;96437.47;6309390;22;20367;-64
2023/09/27 10:36:18;;;;;;;6.57;5.97;;;;;;;17.82;100.00;96426.31;6309471;22;20018;-64
2023/09/27 10:38:44;;;;;;;7.80;5.57;;;;;;;17.92;100.00;96431.44;6309622;22;20007;-63
2023/09/27 10:41:33;;;;;;;5.68;5.20;;;;;;;18.11;100.00;96424.09;6309711;22;20003;-63
2023/09/27 10:43:59;;;;;;;10.13;5.40;;;;;;;18.20;100.00;96420.41;6308913;22;20007;-64
2023/09/27 10:46:25;;;;;;;6.50;5.82;;;;;;;18.34;100.00;96416.19;6309859;22;19992;-64
2023/09/27 10:49:00;;;;;;;6.65;5.95;;;;;;;18.50;100.00;96436.63;6309570;22;20010;-64
2023/09/27 10:51:26;;;;;;;;;;;;;;;18.75;100.00;96417.81;6310113;22;20412;-63
2023/09/27 10:53:54;;;;;;;6.28;5.78;;;;;;;18.92;100.00;96426.56;6309368;22;20263;-64
2023/09/27 10:56:20;;;;;;;10.63;5.57;;;;;;;19.02;100.00;96423.69;6309673;22;20013;-64
2023/09/27 10:58:52;;;;;;;8.95;6.80;;;;;;;19.05;100.00;96420.66;6309228;22;20022;-64
2023/09/27 11:01:22;;;;;;;10.18;6.30;;;;;;;19.17;100.00;96405.91;6308937;22;20003;-64
2023/09/27 11:03:48;;;;;;;8.68;5.30;;;;;;;19.31;100.00;96388.28;6309463;22;20006;-64
2023/09/27 11:06:14;;;;;;;7.00;5.60;;;;;;;19.53;100.00;96377.72;6309509;22;20042;-64
2023/09/27 11:08:40;;;;;;;7.10;5.70;;;;;;;19.69;100.00;96379.41;6309659;22;19995;-64
2023/09/27 11:11:10;;;;;;;7.05;5.75;;;;;;;19.84;100.00;96365.22;6309992;22;20317;-64
2023/09/27 11:13:41;;;;;;;7.03;5.50;;;;;;;20.03;100.00;96361.19;6309104;22;20019;-63
2023/09/27 11:16:08;;;;;;;7.38;5.28;;;;;;;20.07;100.00;96362.47;6309349;22;20010;-64
2023/09/27 11:18:35;;;;;;;5.78;5.22;;;;;;;20.18;100.00;96367.38;6309192;22;19999;-64
2023/09/27 11:21:10;;;;;;;6.28;5.68;;;;;;;20.33;100.00;96361.16;6309237;22;20507;-64
2023/09/27 11:23:59;;;;;;;6.07;5.50;;;;;;;20.46;100.00;96360.50;6309524;22;20058;-64
2023/09/27 11:26:29;;;;;;;6.90;5.60;;;;;;;20.57;100.00;96351.16;6307930;22;20003;-64